createdAt,value
2023-05-11T00:00:37.534Z,8.00
2023-05-11T00:03:04.630Z,7.50
2023-05-11T00:05:47.252Z,6.00
2023-05-11T00:08:29.922Z,4.50
2023-05-11T00:11:21.663Z,8.00
2023-05-11T00:14:09.871Z,8.00
2023-05-11T00:16:36.831Z,5.50
2023-05-11T00:19:05.446Z,6.00
2023-05-11T00:21:32.570Z,3.00
2023-05-11T00:23:59.494Z,9.00
2023-05-11T00:26:27.026Z,10.00
2023-05-11T00:28:54.010Z,9.50
2023-05-11T00:31:21.048Z,8.00
2023-05-11T00:33:48.006Z,6.00
2023-05-11T00:36:15.379Z,9.50
2023-05-11T00:38:42.315Z,10.00
2023-05-11T00:41:09.336Z,8.00
2023-05-11T00:43:36.583Z,10.00
2023-05-11T00:46:03.634Z,9.00
2023-05-11T00:48:31.030Z,9.00
2023-05-11T00:51:00.240Z,4.00
2023-05-11T00:53:27.458Z,8.00
2023-05-11T00:55:54.763Z,7.00
2023-05-11T00:58:22.145Z,7.75
2023-05-11T01:00:49.182Z,8.00
2023-05-11T01:03:17.486Z,5.25
2023-05-11T01:06:26.586Z,5.00
2023-05-11T01:09:28.281Z,4.25
2023-05-11T01:12:30.902Z,5.50
2023-05-11T01:15:22.547Z,4.00
2023-05-11T01:18:38.540Z,6.00
2023-05-11T01:21:07.302Z,7.00
2023-05-11T01:23:58.841Z,2.25
2023-05-11T01:26:37.578Z,5.25
2023-05-11T01:29:35.168Z,4.00
2023-05-11T01:32:06.690Z,7.25
2023-05-11T01:34:39.708Z,8.00
2023-05-11T01:37:36.827Z,6.25
2023-05-11T01:40:12.811Z,4.00
2023-05-11T01:42:49.015Z,3.00
2023-05-11T01:45:17.532Z,3.00
2023-05-11T01:47:49.060Z,3.00
2023-05-11T01:50:18.649Z,2.00
2023-05-11T01:52:49.118Z,4.00
2023-05-11T01:55:20.696Z,7.25
2023-05-11T01:57:52.169Z,9.00
2023-05-11T02:00:20.060Z,7.00
2023-05-11T02:02:49.309Z,4.00
2023-05-11T02:05:21.083Z,1.25
2023-05-11T02:07:54.482Z,5.25
2023-05-11T02:10:25.723Z,3.00
2023-05-11T02:12:54.143Z,5.50
2023-05-11T02:15:22.946Z,5.25
2023-05-11T02:17:51.531Z,5.75
2023-05-11T02:20:20.501Z,4.75
2023-05-11T02:22:49.308Z,7.00
2023-05-11T02:25:17.271Z,3.25
2023-05-11T02:27:44.362Z,6.25
2023-05-11T02:30:13.117Z,5.75
2023-05-11T02:32:47.902Z,5.25
2023-05-11T02:35:19.032Z,8.00
2023-05-11T02:37:47.841Z,9.50
2023-05-11T02:40:19.141Z,8.50
2023-05-11T02:42:51.595Z,7.00
2023-05-11T02:45:20.310Z,7.00
2023-05-11T02:47:54.290Z,6.00
2023-05-11T02:50:24.642Z,8.00
2023-05-11T02:52:56.054Z,10.50
2023-05-11T02:55:24.371Z,11.50
2023-05-11T02:57:51.973Z,7.25
2023-05-11T03:00:19.318Z,9.25
2023-05-11T03:02:46.621Z,8.50
2023-05-11T03:05:13.593Z,9.00
2023-05-11T03:07:40.811Z,8.00
2023-05-11T03:10:08.685Z,6.00
2023-05-11T03:12:35.964Z,7.00
2023-05-11T03:15:04.697Z,6.00
2023-05-11T03:17:32.275Z,8.00
2023-05-11T03:20:03.719Z,6.00
2023-05-11T03:22:32.012Z,6.50
2023-05-11T03:25:00.865Z,6.00
2023-05-11T03:27:28.321Z,4.00
2023-05-11T03:29:57.387Z,7.00
2023-05-11T03:32:24.673Z,5.50
2023-05-11T03:34:52.437Z,4.00
2023-05-11T03:37:21.077Z,4.00
2023-05-11T03:39:51.513Z,2.00
2023-05-11T03:42:19.717Z,4.00
2023-05-11T03:44:47.837Z,3.75
2023-05-11T03:47:16.578Z,2.75
2023-05-11T03:49:44.337Z,3.00
2023-05-11T03:52:11.923Z,2.00
2023-05-11T03:54:39.154Z,5.25
2023-05-11T03:57:06.276Z,4.25
2023-05-11T03:59:33.244Z,4.00
2023-05-11T04:02:01.675Z,2.00
2023-05-11T04:04:30.983Z,2.00
2023-05-11T04:06:59.413Z,2.00
2023-05-11T04:09:26.441Z,2.75
2023-05-11T04:11:53.682Z,2.00
2023-05-11T04:14:23.589Z,2.00
2023-05-11T04:16:50.535Z,4.25
2023-05-11T04:19:17.464Z,3.00
2023-05-11T04:21:44.997Z,5.00
2023-05-11T04:24:12.074Z,8.00
2023-05-11T04:26:38.972Z,5.75
2023-05-11T04:29:05.983Z,9.00
2023-05-11T04:31:32.989Z,7.00
2023-05-11T04:33:59.898Z,8.50
2023-05-11T04:36:26.828Z,5.00
2023-05-11T04:38:53.728Z,5.00
2023-05-11T04:41:21.044Z,5.25
2023-05-11T04:43:47.936Z,3.75
2023-05-11T04:46:15.590Z,3.00
2023-05-11T04:48:42.547Z,1.50
2023-05-11T04:51:10.245Z,2.75
2023-05-11T04:53:37.204Z,7.00
2023-05-11T04:56:04.249Z,5.75
2023-05-11T04:58:31.203Z,6.00
2023-05-11T05:00:58.199Z,9.00
2023-05-11T05:03:26.044Z,5.75
2023-05-11T05:05:52.971Z,10.00
2023-05-11T05:08:20.532Z,6.75
2023-05-11T05:10:48.438Z,5.75
2023-05-11T05:13:17.098Z,6.00
2023-05-11T05:15:44.209Z,9.00
2023-05-11T05:18:11.205Z,9.75
2023-05-11T05:20:38.139Z,7.00
2023-05-11T05:23:05.876Z,7.00
2023-05-11T05:25:32.799Z,6.75
2023-05-11T05:27:59.749Z,8.25
2023-05-11T05:30:26.825Z,9.00
2023-05-11T05:32:55.298Z,6.00
2023-05-11T05:35:22.698Z,3.00
2023-05-11T05:37:49.611Z,6.67
2023-05-11T05:40:16.846Z,8.33
2023-05-11T05:42:44.193Z,9.00
2023-05-11T05:45:13.182Z,5.00
2023-05-11T05:47:42.122Z,7.00
2023-05-11T05:50:09.600Z,7.00
2023-05-11T05:52:36.558Z,9.33
2023-05-11T05:55:03.652Z,10.00
2023-05-11T05:57:30.908Z,6.00
2023-05-11T05:59:57.863Z,7.33
2023-05-11T06:02:24.911Z,8.00
2023-05-11T06:04:51.956Z,4.67
2023-05-11T06:07:18.954Z,8.33
2023-05-11T06:09:45.930Z,7.00
2023-05-11T06:12:12.949Z,8.00
2023-05-11T06:14:41.573Z,6.33
2023-05-11T06:17:08.510Z,6.00
2023-05-11T06:19:35.518Z,4.33
2023-05-11T06:22:04.365Z,6.33
2023-05-11T06:24:33.449Z,6.00
2023-05-11T06:27:00.351Z,5.00
2023-05-11T06:29:27.423Z,5.00
2023-05-11T06:31:56.159Z,5.00
2023-05-11T06:34:23.224Z,4.00
2023-05-11T06:36:50.215Z,4.00
2023-05-11T06:39:17.110Z,7.00
2023-05-11T06:41:44.705Z,5.00
2023-05-11T06:44:13.272Z,6.00
2023-05-11T06:46:40.233Z,6.67
2023-05-11T06:49:09.014Z,5.00
2023-05-11T06:51:36.029Z,6.00
2023-05-11T06:54:03.066Z,5.33
2023-05-11T06:56:32.064Z,6.00
2023-05-11T06:58:59.088Z,6.00
2023-05-11T07:01:26.230Z,6.00
2023-05-11T07:03:55.759Z,5.00
2023-05-11T07:06:22.845Z,5.00
2023-05-11T07:08:49.802Z,4.67
2023-05-11T07:11:17.025Z,3.00
2023-05-11T07:13:45.530Z,3.00
2023-05-11T07:16:13.150Z,4.33
2023-05-11T07:18:40.191Z,5.00
2023-05-11T07:21:07.293Z,8.00
2023-05-11T07:23:34.169Z,7.67
2023-05-11T07:26:02.071Z,4.67
2023-05-11T07:28:28.940Z,5.00
2023-05-11T07:30:56.055Z,3.00
2023-05-11T07:33:23.006Z,4.00
2023-05-11T07:35:52.020Z,3.00
2023-05-11T07:38:19.152Z,3.00
2023-05-11T07:40:46.087Z,3.00
2023-05-11T07:43:13.102Z,2.00
2023-05-11T07:45:40.495Z,4.00
2023-05-11T07:48:07.977Z,4.33
2023-05-11T07:50:35.134Z,5.67
2023-05-11T07:53:03.136Z,3.67
2023-05-11T07:55:30.846Z,3.67
2023-05-11T07:57:57.766Z,1.00
2023-05-11T08:00:24.870Z,3.00
2023-05-11T08:02:51.990Z,2.00
2023-05-11T08:05:20.355Z,3.00
2023-05-11T08:07:47.628Z,3.00
2023-05-11T08:10:14.562Z,4.67
2023-05-11T08:12:41.570Z,4.00
2023-05-11T08:15:09.336Z,3.67
2023-05-11T08:17:36.841Z,3.67
2023-05-11T08:20:05.154Z,5.00
2023-05-11T08:22:32.347Z,3.00
2023-05-11T08:24:59.229Z,2.00
2023-05-11T08:27:26.135Z,2.00
2023-05-11T08:29:53.088Z,2.67
2023-05-11T08:32:20.098Z,0.33
2023-05-11T08:34:47.271Z,3.00
2023-05-11T08:37:14.371Z,3.67
2023-05-11T08:39:47.105Z,2.00
2023-05-11T08:42:16.917Z,4.67
2023-05-11T08:44:45.063Z,4.00
2023-05-11T08:49:42.392Z,5.00
2023-05-11T08:52:11.070Z,5.00
2023-05-11T08:54:38.480Z,3.00
2023-05-11T08:57:07.327Z,2.00
2023-05-11T08:59:34.628Z,4.33
2023-05-11T09:02:02.509Z,4.00
2023-05-11T09:04:30.761Z,3.00
2023-05-11T09:06:58.749Z,3.00
2023-05-11T09:09:25.831Z,2.33
2023-05-11T09:11:54.476Z,2.00
2023-05-11T09:14:27.056Z,4.00
2023-05-11T09:16:54.520Z,3.00
2023-05-11T09:19:22.089Z,3.00
2023-05-11T09:21:51.134Z,2.00
2023-05-11T09:24:21.048Z,1.00
2023-05-11T09:26:48.288Z,1.00
2023-05-11T09:29:19.575Z,1.00
2023-05-11T09:31:50.343Z,2.00
2023-05-11T09:34:22.302Z,1.33
2023-05-11T09:36:54.182Z,1.00
2023-05-11T09:39:40.006Z,0.00
2023-05-11T09:42:19.191Z,1.00
2023-05-11T09:44:47.429Z,2.00
2023-05-11T09:47:16.228Z,3.00
2023-05-11T09:49:44.866Z,2.67
2023-05-11T09:52:21.507Z,2.33
2023-05-11T09:54:51.209Z,2.00
2023-05-11T09:57:29.939Z,2.00
2023-05-11T09:59:58.701Z,1.00
2023-05-11T10:02:31.369Z,1.00
2023-05-11T10:05:01.612Z,3.00
2023-05-11T10:07:34.063Z,2.00
2023-05-11T10:10:09.327Z,2.00
2023-05-11T10:12:39.545Z,2.00
2023-05-11T10:15:08.564Z,1.33
2023-05-11T10:17:37.181Z,2.00
2023-05-11T10:20:06.848Z,2.00
2023-05-11T10:22:34.123Z,2.00
2023-05-11T10:25:01.792Z,3.00
2023-05-11T10:27:29.002Z,2.00
2023-05-11T10:29:58.559Z,2.00
2023-05-11T10:32:25.715Z,1.00
2023-05-11T10:34:52.845Z,2.00
2023-05-11T10:37:21.442Z,2.00
2023-05-11T10:39:50.713Z,2.33
2023-05-11T10:42:39.546Z,2.00
2023-05-11T10:45:07.105Z,1.00
2023-05-11T10:48:10.531Z,1.00
2023-05-11T10:51:14.698Z,2.00
2023-05-11T10:54:20.996Z,2.67
2023-05-11T10:57:12.568Z,3.00
2023-05-11T10:59:45.502Z,2.00
2023-05-11T11:02:12.819Z,1.33
2023-05-11T11:04:47.187Z,2.33
2023-05-11T11:07:21.220Z,1.33
2023-05-11T11:10:06.577Z,1.00
2023-05-11T11:12:36.813Z,1.00
2023-05-11T11:15:07.743Z,2.33
2023-05-11T11:17:36.104Z,4.00
2023-05-11T11:20:08.772Z,4.00
2023-05-11T11:22:38.842Z,4.00
2023-05-11T11:25:07.224Z,2.67
2023-05-11T11:27:46.211Z,3.33
2023-05-11T11:30:21.893Z,4.00
2023-05-11T11:33:07.357Z,4.00
2023-05-11T11:35:40.894Z,4.33
2023-05-11T11:38:09.839Z,2.00
2023-05-11T11:40:50.492Z,1.00
2023-05-11T11:43:26.396Z,2.00
2023-05-11T11:45:57.111Z,3.33
2023-05-11T11:48:31.197Z,3.00
2023-05-11T11:51:05.010Z,3.67
2023-05-11T11:53:38.226Z,4.00
2023-05-11T11:56:07.746Z,3.33
2023-05-11T11:58:43.745Z,2.33
2023-05-11T12:01:13.647Z,1.00
2023-05-11T12:03:42.296Z,3.00
2023-05-11T12:06:11.205Z,3.67
2023-05-11T12:08:39.761Z,2.00
2023-05-11T12:11:07.516Z,4.00
2023-05-11T12:13:35.848Z,4.00
2023-05-11T12:16:10.664Z,4.33
2023-05-11T12:18:37.860Z,4.00
2023-05-11T12:21:04.997Z,2.67
2023-05-11T12:23:32.549Z,4.00
2023-05-11T12:26:04.068Z,3.00
2023-05-11T12:28:31.269Z,4.00
2023-05-11T12:31:00.389Z,3.00
2023-05-11T12:33:27.803Z,2.00
2023-05-11T12:35:56.658Z,1.33
2023-05-11T12:38:23.662Z,2.00
2023-05-11T12:40:53.437Z,4.00
2023-05-11T12:43:22.172Z,3.00
2023-05-11T12:45:49.661Z,2.00
2023-05-11T12:48:16.979Z,3.00
2023-05-11T12:50:47.280Z,3.00
2023-05-11T12:53:19.354Z,2.00
2023-05-11T12:55:57.562Z,1.00
2023-05-11T12:58:24.624Z,3.00
2023-05-11T13:00:58.998Z,2.00
2023-05-11T13:03:28.661Z,3.00
2023-05-11T13:06:09.324Z,3.00
2023-05-11T13:08:44.667Z,4.00
2023-05-11T13:11:23.350Z,3.00
2023-05-11T13:13:51.480Z,2.00
2023-05-11T13:16:29.539Z,3.00
2023-05-11T13:19:05.302Z,3.00
2023-05-11T13:21:33.770Z,3.00
2023-05-11T13:24:04.065Z,3.33
2023-05-11T13:26:32.295Z,2.00
2023-05-11T13:29:10.137Z,2.33
2023-05-11T13:31:45.624Z,2.00
2023-05-11T13:34:12.608Z,2.33
2023-05-11T13:36:40.064Z,3.00
2023-05-11T13:39:07.612Z,2.00
2023-05-11T13:41:34.608Z,3.67
2023-05-11T13:44:01.641Z,2.00
2023-05-11T13:46:29.385Z,3.67
2023-05-11T13:48:56.571Z,3.00
2023-05-11T13:51:23.578Z,2.67
2023-05-11T13:53:50.499Z,3.00
2023-05-11T13:56:19.756Z,2.00
2023-05-11T13:58:46.677Z,3.00
2023-05-11T14:01:13.714Z,1.00
2023-05-11T14:03:40.633Z,2.00
2023-05-11T14:06:07.913Z,1.00
2023-05-11T14:08:34.874Z,2.33
2023-05-11T14:11:01.914Z,3.00
2023-05-11T14:13:28.835Z,4.00
2023-05-11T14:15:55.865Z,3.00
2023-05-11T14:18:25.104Z,3.00
2023-05-11T14:20:52.240Z,2.33
2023-05-11T14:23:19.188Z,3.00
2023-05-11T14:25:46.183Z,3.00
2023-05-11T14:28:13.122Z,3.00
2023-05-11T14:30:41.460Z,2.67
2023-05-11T14:33:08.459Z,3.00
2023-05-11T14:35:37.734Z,3.00
2023-05-11T14:38:06.615Z,3.00
2023-05-11T14:40:33.723Z,2.33
2023-05-11T14:43:00.795Z,3.33
2023-05-11T14:45:28.296Z,2.00
2023-05-11T14:47:55.695Z,3.00
2023-05-11T14:50:22.641Z,3.00
2023-05-11T14:52:49.665Z,2.67
2023-05-11T14:55:16.940Z,4.00
2023-05-11T14:57:44.067Z,3.00
2023-05-11T15:00:13.078Z,3.00
2023-05-11T15:02:40.110Z,3.00
2023-05-11T15:05:07.769Z,1.00
2023-05-11T15:07:35.378Z,2.00
2023-05-11T15:10:03.109Z,4.00
2023-05-11T15:12:30.532Z,3.00
2023-05-11T15:14:57.447Z,2.00
2023-05-11T15:17:24.504Z,3.00
2023-05-11T15:19:51.447Z,3.00
2023-05-11T15:22:19.461Z,1.00
2023-05-11T15:24:46.416Z,2.00
2023-05-11T15:27:13.524Z,3.00
2023-05-11T15:29:40.869Z,4.67
2023-05-11T15:32:08.167Z,2.00
2023-05-11T15:34:41.755Z,2.00
2023-05-11T15:37:18.102Z,3.00
2023-05-11T15:39:44.989Z,2.00
2023-05-11T15:42:11.893Z,3.00
2023-05-11T15:44:38.822Z,3.00
2023-05-11T15:47:06.367Z,2.33
2023-05-11T15:49:33.610Z,2.00
2023-05-11T15:52:00.649Z,0.00
2023-05-11T15:54:28.023Z,2.67
2023-05-11T15:56:55.029Z,4.00
2023-05-11T15:59:21.969Z,3.67
2023-05-11T16:01:48.922Z,3.00
2023-05-11T16:04:15.997Z,3.67
2023-05-11T16:06:43.247Z,3.33
2023-05-11T16:09:10.388Z,4.33
2023-05-11T16:11:37.748Z,2.67
2023-05-11T16:14:04.814Z,4.33
2023-05-11T16:16:31.966Z,3.67
2023-05-11T16:18:59.801Z,4.67
2023-05-11T16:21:27.434Z,4.00
2023-05-11T16:23:55.447Z,4.00
2023-05-11T16:26:23.427Z,5.00
2023-05-11T16:28:50.447Z,6.00
2023-05-11T16:31:17.491Z,4.67
2023-05-11T16:33:44.451Z,5.00
2023-05-11T16:36:11.734Z,6.00
2023-05-11T16:38:39.265Z,3.00
2023-05-11T16:41:06.215Z,6.00
2023-05-11T16:43:33.307Z,5.00
2023-05-11T16:46:01.659Z,5.00
2023-05-11T16:48:28.784Z,6.00
2023-05-11T16:50:56.098Z,5.67
2023-05-11T16:53:27.393Z,5.00
2023-05-11T16:55:55.573Z,4.75
2023-05-11T16:58:24.261Z,5.00
2023-05-11T17:00:52.187Z,4.00
2023-05-11T17:03:21.297Z,4.75
2023-05-11T17:05:48.937Z,4.00
2023-05-11T17:08:15.908Z,4.00
2023-05-11T17:10:42.985Z,2.00
2023-05-11T17:13:09.955Z,5.00
2023-05-11T17:15:37.023Z,4.00
2023-05-11T17:18:05.314Z,3.75
2023-05-11T17:20:32.944Z,3.00
2023-05-11T17:22:59.860Z,4.00
2023-05-11T17:25:26.907Z,4.00
2023-05-11T17:27:53.856Z,5.00
2023-05-11T17:30:22.181Z,4.00
2023-05-11T17:32:52.409Z,0.00
2023-05-11T17:35:19.405Z,3.25
2023-05-11T17:37:46.454Z,5.00
2023-05-11T17:40:13.499Z,3.33
2023-05-11T17:42:40.661Z,4.50
2023-05-11T17:45:08.313Z,4.00
2023-05-11T17:47:39.697Z,3.00
2023-05-11T17:50:07.418Z,5.00
2023-05-11T17:52:34.499Z,4.00
2023-05-11T17:55:02.952Z,5.00
2023-05-11T17:57:29.899Z,4.00
2023-05-11T17:59:56.876Z,3.50
2023-05-11T18:02:23.978Z,4.00
2023-05-11T18:04:51.151Z,4.00
2023-05-11T18:07:18.332Z,2.00
2023-05-11T18:09:45.281Z,3.00
2023-05-11T18:12:12.206Z,3.00
2023-05-11T18:14:39.162Z,4.00
2023-05-11T18:17:06.128Z,5.00
2023-05-11T18:19:33.041Z,4.00
2023-05-11T18:22:00.781Z,4.00
2023-05-11T18:24:27.697Z,6.25
2023-05-11T18:26:54.625Z,5.00
2023-05-11T18:29:22.574Z,4.00
2023-05-11T18:31:49.867Z,5.50
2023-05-11T18:34:16.797Z,5.00
2023-05-11T18:36:44.016Z,6.00
2023-05-11T18:39:11.717Z,7.00
2023-05-11T18:41:38.749Z,6.00
2023-05-11T18:44:05.835Z,5.00
2023-05-11T18:46:32.955Z,5.25
2023-05-11T18:49:00.000Z,5.50
2023-05-11T18:51:26.933Z,7.00
2023-05-11T18:53:53.897Z,5.00
2023-05-11T18:56:22.540Z,4.75
2023-05-11T18:58:50.611Z,5.00
2023-05-11T19:01:18.272Z,5.25
2023-05-11T19:03:45.350Z,4.50
2023-05-11T19:06:12.360Z,5.00
2023-05-11T19:08:39.300Z,6.00
2023-05-11T19:11:10.774Z,5.50
2023-05-11T19:13:37.987Z,6.00
2023-05-11T19:16:05.358Z,7.75
2023-05-11T19:18:35.696Z,6.25
2023-05-11T19:21:05.201Z,6.00
2023-05-11T19:23:33.499Z,3.00
2023-05-11T19:26:00.751Z,6.00
2023-05-11T19:28:27.798Z,7.00
2023-05-11T19:31:02.365Z,7.00
2023-05-11T19:33:30.625Z,6.00
2023-05-11T19:35:57.959Z,5.00
2023-05-11T19:38:25.539Z,7.50
2023-05-11T19:40:52.768Z,6.75
2023-05-11T19:43:19.887Z,7.00
2023-05-11T19:45:46.850Z,6.75
2023-05-11T19:48:14.125Z,4.00
2023-05-11T19:50:41.867Z,7.00
2023-05-11T19:53:08.926Z,6.00
2023-05-11T19:55:35.821Z,5.00
2023-05-11T19:58:02.903Z,6.00
2023-05-11T20:00:29.909Z,7.00
2023-05-11T20:02:57.533Z,5.50
2023-05-11T20:05:24.781Z,7.00
2023-05-11T20:07:51.809Z,5.25
2023-05-11T20:10:18.900Z,4.50
2023-05-11T20:12:46.124Z,5.00
2023-05-11T20:15:13.169Z,6.00
2023-05-11T20:17:40.246Z,4.25
2023-05-11T20:20:08.817Z,6.25
2023-05-11T20:22:37.037Z,6.50
2023-05-11T20:25:09.624Z,6.25
2023-05-11T20:27:43.852Z,7.00
2023-05-11T20:30:11.511Z,7.00
2023-05-11T20:32:38.538Z,4.00
2023-05-11T20:35:06.167Z,7.00
2023-05-11T20:37:33.163Z,6.00
2023-05-11T20:40:00.241Z,5.00
2023-05-11T20:42:27.616Z,4.50
2023-05-11T20:44:54.574Z,4.75
2023-05-11T20:47:21.581Z,4.50
2023-05-11T20:49:48.510Z,5.00
2023-05-11T20:52:15.505Z,5.00
2023-05-11T20:54:42.530Z,4.00
2023-05-11T20:57:09.888Z,5.50
2023-05-11T21:02:06.852Z,5.00
2023-05-11T21:04:34.224Z,4.00
2023-05-11T21:07:01.178Z,3.00
2023-05-11T21:09:28.062Z,3.00
2023-05-11T21:11:55.020Z,3.00
2023-05-11T21:14:21.967Z,2.00
2023-05-11T21:16:49.052Z,2.75
2023-05-11T21:19:18.655Z,4.00
2023-05-11T21:21:46.081Z,4.00
2023-05-11T21:24:14.243Z,4.00
2023-05-11T21:26:41.294Z,4.00
2023-05-11T21:29:08.552Z,3.75
2023-05-11T21:31:35.493Z,5.00
2023-05-11T21:34:02.622Z,4.00
2023-05-11T21:36:29.587Z,4.00
2023-05-11T21:38:56.564Z,3.00
2023-05-11T21:41:23.484Z,4.25
2023-05-11T21:43:50.884Z,5.00
2023-05-11T21:46:17.930Z,3.00
2023-05-11T21:48:44.936Z,4.00
2023-05-11T21:51:11.889Z,4.00
2023-05-11T21:53:38.980Z,5.25
2023-05-11T21:56:05.996Z,6.25
2023-05-11T21:58:32.925Z,7.00
2023-05-11T22:00:59.987Z,5.00
2023-05-11T22:03:30.186Z,5.00
2023-05-11T22:05:57.792Z,5.50
2023-05-11T22:08:24.754Z,5.00
2023-05-11T22:10:51.714Z,7.75
2023-05-11T22:13:18.724Z,5.00
2023-05-11T22:15:45.637Z,4.75
2023-05-11T22:18:12.528Z,6.00
2023-05-11T22:20:39.701Z,4.00
2023-05-11T22:23:06.665Z,4.50
2023-05-11T22:25:33.947Z,3.00
2023-05-11T22:28:01.042Z,5.00
2023-05-11T22:30:27.922Z,6.00
2023-05-11T22:32:54.872Z,5.00
2023-05-11T22:35:23.008Z,3.00
2023-05-11T22:37:50.002Z,4.00
2023-05-11T22:40:17.273Z,3.00
2023-05-11T22:42:44.309Z,3.00
2023-05-11T22:45:11.668Z,2.00
2023-05-11T22:47:38.565Z,3.50
2023-05-11T22:50:08.716Z,2.00
2023-05-11T22:52:36.594Z,3.00
2023-05-11T22:55:04.307Z,4.00
2023-05-11T22:57:31.327Z,2.25
2023-05-11T22:59:58.353Z,4.00
2023-05-11T23:02:25.397Z,3.00
2023-05-11T23:04:53.252Z,3.00
2023-05-11T23:07:20.377Z,4.00
2023-05-11T23:09:47.859Z,4.00
2023-05-11T23:12:14.763Z,3.50
2023-05-11T23:14:42.052Z,5.00
2023-05-11T23:17:09.404Z,5.00
2023-05-11T23:19:36.758Z,6.50
2023-05-11T23:22:03.839Z,5.00
2023-05-11T23:24:30.768Z,6.75
2023-05-11T23:26:57.684Z,5.00
2023-05-11T23:29:24.769Z,3.00
2023-05-11T23:31:51.855Z,3.00
2023-05-11T23:34:19.152Z,2.00
2023-05-11T23:36:46.902Z,2.00
2023-05-11T23:39:14.047Z,5.00
2023-05-11T23:41:40.991Z,6.00
2023-05-11T23:44:07.900Z,5.00
2023-05-11T23:46:34.974Z,3.25
2023-05-11T23:49:02.189Z,5.00
2023-05-11T23:51:29.138Z,4.00
2023-05-11T23:53:56.687Z,3.50
2023-05-11T23:56:23.546Z,2.50
2023-05-11T23:58:50.908Z,2.25
